Time;durP1;ratioP1;P1;durP2;ratioP2;P2;SDS_P1;SDS_P2;PMS_P1;PMS_P2;Temp;Humidity;BMP_temperature;BMP_pressure;BME280_temperature;BME280_humidity;BME280_pressure;Samples;Min_cycle;Max_cycle;Signal;HPM_P1;HPM_P2
2022/05/23 00:01:58;;;;;;;7.75;2.20;;;16.50;99.90;;;;;;5055968;28;20387;-69
2022/05/23 00:04:24;;;;;;;4.22;1.95;;;16.50;99.90;;;;;;5055643;28;20401;-69
2022/05/23 00:06:50;;;;;;;5.82;1.35;;;16.50;99.90;;;;;;5055445;28;20040;-69
2022/05/23 00:09:16;;;;;;;5.53;1.65;;;16.60;99.90;;;;;;5055572;28;20076;-69
2022/05/23 00:11:42;;;;;;;7.20;1.83;;;16.60;99.90;;;;;;5056014;28;20055;-69
2022/05/23 00:14:08;;;;;;;3.90;1.70;;;16.50;99.90;;;;;;5055569;28;20045;-69
2022/05/23 00:16:38;;;;;;;5.50;2.38;;;16.50;99.90;;;;;;5055596;28;20037;-69
2022/05/23 00:19:04;;;;;;;5.60;1.92;;;16.50;99.90;;;;;;5055243;28;20037;-72
2022/05/23 00:21:30;;;;;;;3.83;2.05;;;16.40;99.90;;;;;;5055479;28;20049;-69
2022/05/23 00:23:56;;;;;;;4.50;1.83;;;16.40;99.90;;;;;;5055205;28;20064;-69
2022/05/23 00:26:22;;;;;;;2.97;1.67;;;16.40;99.90;;;;;;5055262;28;20045;-69
2022/05/23 00:28:49;;;;;;;6.25;1.80;;;16.40;99.90;;;;;;5055556;28;20107;-69
2022/05/23 00:31:15;;;;;;;4.95;2.03;;;16.30;99.90;;;;;;5055125;28;20064;-69
2022/05/23 00:36:30;;;;;;;4.22;2.05;;;16.30;99.90;;;;;;5055289;28;20049;-69
2022/05/23 00:38:56;;;;;;;5.88;2.28;;;16.20;99.90;;;;;;5055132;28;20091;-69
2022/05/23 00:44:23;;;;;;;6.07;2.40;;;16.10;99.90;;;;;;5054736;28;20052;-69
2022/05/23 00:46:55;;;;;;;4.00;2.10;;;15.90;99.90;;;;;;5055249;28;20049;-69
2022/05/23 00:49:24;;;;;;;10.18;2.40;;;15.90;99.90;;;;;;5054335;28;20048;-69
2022/05/23 00:51:50;;;;;;;3.83;2.28;;;15.90;99.90;;;;;;5055228;28;20045;-69
2022/05/23 00:54:17;;;;;;;4.85;2.35;;;16.00;99.90;;;;;;5054402;28;20045;-69
2022/05/23 00:56:46;;;;;;;5.82;2.35;;;15.90;99.90;;;;;;5054835;28;20049;-69
2022/05/23 00:59:19;;;;;;;4.60;2.60;;;15.90;99.90;;;;;;5037660;28;20053;-69
2022/05/23 01:01:45;;;;;;;4.68;2.38;;;15.90;99.90;;;;;;5036987;28;20049;-69
2022/05/23 01:04:11;;;;;;;5.03;2.17;;;15.90;99.90;;;;;;5054836;28;20041;-69
2022/05/23 01:06:37;;;;;;;7.25;2.50;;;15.90;99.90;;;;;;5054476;28;20095;-69
2022/05/23 01:09:03;;;;;;;5.53;2.60;;;15.90;99.90;;;;;;5053264;28;20092;-69
2022/05/23 01:11:29;;;;;;;8.55;2.83;;;15.80;99.90;;;;;;5054546;28;20500;-69
2022/05/23 01:13:55;;;;;;;6.47;2.70;;;15.70;99.90;;;;;;5054566;28;20044;-69
2022/05/23 01:16:22;;;;;;;6.15;3.30;;;15.60;99.90;;;;;;5054460;28;20041;-69
2022/05/23 01:18:48;;;;;;;4.88;2.53;;;15.60;99.90;;;;;;5054353;28;20056;-69
2022/05/23 01:21:55;;;;;;;4.63;2.78;;;15.50;99.90;;;;;;5054511;28;20130;-69
2022/05/23 01:24:44;;;;;;;6.68;2.97;;;15.50;99.90;;;;;;5002942;28;20064;-69
2022/05/23 01:27:11;;;;;;;5.07;2.72;;;15.40;99.90;;;;;;5054327;28;20051;-69
2022/05/23 01:29:37;;;;;;;6.88;2.97;;;15.30;99.90;;;;;;5036527;28;20056;-69
2022/05/23 01:32:03;;;;;;;4.70;3.50;;;15.30;99.90;;;;;;5054060;28;20049;-69
2022/05/23 01:34:29;;;;;;;11.68;3.95;;;15.30;99.90;;;;;;5054109;28;20049;-69
2022/05/23 01:36:55;;;;;;;6.70;3.70;;;15.30;99.90;;;;;;5053834;28;20048;-69
2022/05/23 01:39:20;;;;;;;8.25;3.92;;;15.30;99.90;;;;;;5019865;28;20150;-70
2022/05/23 01:41:46;;;;;;;5.78;3.70;;;15.20;99.90;;;;;;5053893;28;20090;-69
2022/05/23 01:44:12;;;;;;;12.73;4.00;;;15.20;99.90;;;;;;5036419;28;20052;-69
2022/05/23 01:46:38;;;;;;;10.88;5.45;;;15.20;99.90;;;;;;5036355;28;20041;-70
2022/05/23 01:49:04;;;;;;;10.13;4.95;;;15.10;99.90;;;;;;5053975;28;20452;-69
2022/05/23 01:51:29;;;;;;;8.73;4.35;;;15.10;99.90;;;;;;5053858;28;20080;-69
2022/05/23 01:53:55;;;;;;;7.95;5.38;;;15.00;99.90;;;;;;5053408;28;20122;-69
2022/05/23 01:56:21;;;;;;;8.52;4.47;;;14.90;99.90;;;;;;5053705;28;20145;-69
2022/05/23 02:01:31;;;;;;;6.53;4.25;;;15.00;99.90;;;;;;5052840;28;20056;-69
2022/05/23 02:03:56;;;;;;;8.82;5.10;;;15.10;99.90;;;;;;5053565;28;20411;-69
2022/05/23 02:06:22;;;;;;;8.68;5.22;;;15.10;99.90;;;;;;5053541;28;20106;-69
2022/05/23 02:08:48;;;;;;;7.88;4.43;;;15.30;99.90;;;;;;5035948;28;20044;-69
2022/05/23 02:11:14;;;;;;;10.48;4.45;;;15.40;99.90;;;;;;5053494;28;20060;-69
2022/05/23 02:13:42;;;;;;;7.18;4.95;;;15.50;99.90;;;;;;5053658;28;20532;-69
2022/05/23 02:16:08;;;;;;;10.35;5.05;;;15.60;99.90;;;;;;5035671;28;20064;-69
2022/05/23 02:18:34;;;;;;;7.65;4.45;;;15.60;99.90;;;;;;5053469;28;20044;-69
2022/05/23 02:21:00;;;;;;;10.25;5.35;;;15.60;99.90;;;;;;5053340;28;20090;-69
2022/05/23 02:23:26;;;;;;;9.85;4.82;;;15.60;99.90;;;;;;5052772;28;20505;-69
2022/05/23 02:25:52;;;;;;;8.98;5.57;;;15.60;99.90;;;;;;5053076;28;20049;-69
2022/05/23 02:28:19;;;;;;;8.00;5.00;;;15.60;99.90;;;;;;5053094;28;20040;-69
2022/05/23 02:30:47;;;;;;;7.82;4.38;;;15.50;99.90;;;;;;5035316;28;20080;-69
2022/05/23 02:33:12;;;;;;;11.77;4.68;;;15.50;99.90;;;;;;5053213;28;20067;-69
2022/05/23 02:35:39;;;;;;;9.80;6.03;;;15.60;99.90;;;;;;5053397;28;20401;-69
2022/05/23 02:38:04;;;;;;;10.35;5.95;;;15.60;99.90;;;;;;5035470;28;20045;-69
2022/05/23 02:40:30;;;;;;;10.18;5.38;;;15.70;99.90;;;;;;5035681;28;20041;-69
2022/05/23 02:42:56;;;;;;;9.43;5.30;;;15.70;99.90;;;;;;5053006;28;20135;-69
2022/05/23 02:45:22;;;;;;;10.82;5.90;;;15.50;99.90;;;;;;5035353;28;20417;-69
2022/05/23 02:47:48;;;;;;;9.95;6.20;;;15.50;99.90;;;;;;5053177;28;20466;-69
2022/05/23 02:50:14;;;;;;;9.90;6.28;;;15.50;99.90;;;;;;5035334;28;20049;-69
2022/05/23 02:52:41;;;;;;;7.18;6.03;;;15.50;99.90;;;;;;5052680;28;20041;-69
2022/05/23 02:55:08;;;;;;;8.68;6.15;;;15.50;99.90;;;;;;5018880;28;20049;-69
2022/05/23 02:57:34;;;;;;;10.48;6.85;;;15.40;99.90;;;;;;5035424;28;20063;-69
2022/05/23 03:00:00;;;;;;;11.43;7.45;;;15.50;99.90;;;;;;5053342;28;20474;-69
2022/05/23 03:05:10;;;;;;;13.70;8.30;;;15.50;99.90;;;;;;5052875;28;20091;-70
2022/05/23 03:07:36;;;;;;;12.23;6.68;;;15.50;99.90;;;;;;5052857;28;20080;-69
2022/05/23 03:10:04;;;;;;;11.98;8.15;;;15.50;99.90;;;;;;5035127;28;20041;-69
2022/05/23 03:12:30;;;;;;;12.05;7.20;;;15.60;99.90;;;;;;5055263;28;20077;-69
2022/05/23 03:14:56;;;;;;;12.15;7.95;;;15.60;99.90;;;;;;5057137;28;20102;-69
2022/05/23 03:17:22;;;;;;;10.63;7.20;;;15.60;99.90;;;;;;5038789;28;20041;-69
2022/05/23 03:19:47;;;;;;;14.35;7.50;;;15.60;99.90;;;;;;5039168;28;20056;-69
2022/05/23 03:27:43;;;;;;;16.33;7.85;;;15.60;99.90;;;;;;5056832;28;20496;-69
2022/05/23 03:30:10;;;;;;;10.30;6.57;;;15.60;99.90;;;;;;5056443;28;20089;-69
2022/05/23 03:32:36;;;;;;;13.32;7.03;;;15.60;99.90;;;;;;5056568;28;20049;-69
2022/05/23 03:35:02;;;;;;;9.63;5.80;;;15.50;99.90;;;;;;5038665;28;20049;-69
2022/05/23 03:37:28;;;;;;;9.23;5.95;;;15.50;99.90;;;;;;5038666;28;20094;-69
2022/05/23 03:39:54;;;;;;;11.48;7.43;;;15.50;99.90;;;;;;5056238;28;20127;-69
2022/05/23 03:42:20;;;;;;;10.57;5.82;;;15.40;99.90;;;;;;5038830;28;20048;-69
2022/05/23 03:44:46;;;;;;;12.25;6.72;;;15.40;99.90;;;;;;5038746;28;20567;-69
2022/05/23 03:47:12;;;;;;;8.52;5.68;;;15.30;99.90;;;;;;5056124;28;20440;-69
2022/05/23 03:49:37;;;;;;;11.20;7.40;;;15.30;99.90;;;;;;5056009;28;20094;-69
2022/05/23 03:52:04;;;;;;;12.65;6.53;;;15.40;99.90;;;;;;5056011;28;20383;-69
2022/05/23 03:54:29;;;;;;;9.45;5.88;;;15.40;99.90;;;;;;5055318;28;20482;-69
2022/05/23 03:57:03;;;;;;;10.50;5.97;;;15.50;99.90;;;;;;5055885;28;20072;-69
2022/05/23 03:59:29;;;;;;;10.13;5.97;;;15.50;99.90;;;;;;5055720;28;20506;-69
2022/05/23 04:01:57;;;;;;;14.65;5.85;;;15.60;99.90;;;;;;5055950;28;20413;-69
2022/05/23 04:04:28;;;;;;;7.80;5.50;;;15.60;99.90;;;;;;5038170;28;20495;-69
2022/05/23 04:06:59;;;;;;;9.82;5.68;;;15.40;99.90;;;;;;5055772;28;20052;-69
2022/05/23 04:09:25;;;;;;;7.60;4.93;;;15.50;99.90;;;;;;5037913;28;20049;-69
2022/05/23 04:11:51;;;;;;;10.38;5.45;;;15.50;99.90;;;;;;5055833;28;20049;-69
2022/05/23 04:14:17;;;;;;;7.93;4.97;;;15.40;99.90;;;;;;5038016;28;20393;-69
2022/05/23 04:16:46;;;;;;;8.15;5.03;;;15.50;99.90;;;;;;5055577;28;20513;-69
2022/05/23 04:19:12;;;;;;;7.93;4.90;;;15.60;99.90;;;;;;5055529;28;20045;-69
2022/05/23 04:21:42;;;;;;;12.70;5.07;;;15.60;99.90;;;;;;5054470;28;20048;-69
2022/05/23 04:24:09;;;;;;;6.68;4.00;;;15.60;99.90;;;;;;5036358;28;20440;-69
2022/05/23 04:26:35;;;;;;;11.55;5.50;;;15.60;99.90;;;;;;5055594;28;20037;-69
2022/05/23 04:29:01;;;;;;;7.30;4.50;;;15.60;99.90;;;;;;5055717;28;20055;-69
2022/05/23 04:31:27;;;;;;;6.75;4.22;;;15.60;99.90;;;;;;5054922;28;20457;-69
2022/05/23 04:36:37;;;;;;;9.02;4.40;;;15.70;99.90;;;;;;5055899;28;20088;-69
2022/05/23 04:39:03;;;;;;;7.88;5.00;;;15.80;99.90;;;;;;5055220;28;20045;-69
2022/05/23 04:41:29;;;;;;;8.63;4.57;;;15.80;99.90;;;;;;5055088;28;20512;-69
2022/05/23 04:43:55;;;;;;;9.45;5.00;;;15.80;99.90;;;;;;5037444;28;20051;-69
2022/05/23 04:46:21;;;;;;;7.72;5.03;;;15.80;99.90;;;;;;5055123;28;20049;-69
2022/05/23 04:51:31;;;;;;;10.35;4.75;;;15.80;99.90;;;;;;5055357;28;20055;-69
2022/05/23 04:53:57;;;;;;;7.13;4.22;;;15.80;99.90;;;;;;5054337;28;20045;-69
2022/05/23 04:56:25;;;;;;;8.18;4.93;;;16.00;99.90;;;;;;5054907;28;20047;-69
2022/05/23 04:58:51;;;;;;;8.93;4.55;;;16.10;99.90;;;;;;5054794;28;20041;-69
2022/05/23 05:01:18;;;;;;;8.95;4.65;;;16.10;99.90;;;;;;5055468;28;20448;-70
2022/05/23 05:03:43;;;;;;;9.57;4.53;;;16.20;99.90;;;;;;5054856;28;20049;-69
2022/05/23 05:06:09;;;;;;;9.02;4.63;;;16.10;99.90;;;;;;5054585;28;20045;-69
2022/05/23 05:08:35;;;;;;;8.65;4.88;;;16.20;99.90;;;;;;5054725;28;20401;-69
2022/05/23 05:11:04;;;;;;;10.65;4.80;;;16.20;99.90;;;;;;5037062;28;20398;-69
2022/05/23 05:13:33;;;;;;;10.55;5.38;;;16.20;99.90;;;;;;5054659;28;20091;-69
2022/05/23 05:16:02;;;;;;;10.18;4.43;;;16.40;99.90;;;;;;5054452;28;20048;-69
2022/05/23 05:18:30;;;;;;;8.02;4.85;;;16.50;99.90;;;;;;5036987;28;20049;-69
2022/05/23 05:20:57;;;;;;;10.57;5.03;;;16.60;99.90;;;;;;5054493;28;20084;-69
2022/05/23 05:23:24;;;;;;;12.82;5.25;;;16.70;99.90;;;;;;5053683;28;20061;-69
2022/05/23 05:25:52;;;;;;;7.88;4.97;;;16.90;99.90;;;;;;5036718;28;20064;-70
2022/05/23 05:28:18;;;;;;;6.20;4.05;;;16.70;99.90;;;;;;5053897;28;20644;-69
2022/05/23 05:30:51;;;;;;;11.18;5.53;;;16.80;99.90;;;;;;5036536;28;20053;-69
2022/05/23 05:33:21;;;;;;;9.30;5.35;;;16.80;99.90;;;;;;5054082;28;20094;-69
2022/05/23 05:35:56;;;;;;;9.50;4.97;;;16.80;99.90;;;;;;5053965;28;20132;-69
2022/05/23 05:39:02;;;;;;;10.48;4.53;;;16.60;99.90;;;;;;5054182;28;20527;-69
2022/05/23 05:41:35;;;;;;;7.65;5.05;;;16.50;99.90;;;;;;4972643;28;20080;-69
2022/05/23 05:44:05;;;;;;;7.40;4.45;;;16.50;99.90;;;;;;4973286;28;20053;-69
2022/05/23 05:46:44;;;;;;;7.10;4.55;;;16.40;99.90;;;;;;5017589;28;20429;-69
2022/05/23 05:49:17;;;;;;;7.95;4.65;;;16.50;99.90;;;;;;5036390;28;20469;-69
2022/05/23 05:51:44;;;;;;;11.93;4.88;;;16.60;99.90;;;;;;5054376;28;20052;-69
2022/05/23 05:54:15;;;;;;;10.88;5.00;;;16.90;99.90;;;;;;5053408;28;20049;-69
2022/05/23 05:56:43;;;;;;;10.65;5.10;;;17.00;99.90;;;;;;5053927;28;20087;-69
2022/05/23 05:59:09;;;;;;;10.15;5.07;;;16.90;99.90;;;;;;5053599;28;20092;-69
2022/05/23 06:01:36;;;;;;;8.93;5.18;;;16.90;99.90;;;;;;5053794;28;20140;-69
2022/05/23 06:04:02;;;;;;;9.85;4.75;;;16.90;99.90;;;;;;5036174;28;20057;-69
2022/05/23 06:11:56;;;;;;;7.38;5.13;;;17.10;99.90;;;;;;5053835;28;20060;-70
2022/05/23 06:14:22;;;;;;;8.85;5.47;;;17.10;99.90;;;;;;5036107;28;20432;-69
2022/05/23 06:16:47;;;;;;;9.43;5.43;;;17.10;99.90;;;;;;5036111;28;20055;-69
2022/05/23 06:19:14;;;;;;;8.65;4.88;;;17.10;99.90;;;;;;5036077;28;20083;-69
2022/05/23 06:21:40;;;;;;;9.43;4.68;;;17.10;99.90;;;;;;5053405;28;20059;-69
2022/05/23 06:24:06;;;;;;;7.70;4.63;;;17.10;99.90;;;;;;5052558;28;20049;-69
2022/05/23 06:26:32;;;;;;;12.02;4.65;;;17.30;99.90;;;;;;5035716;28;20053;-69
2022/05/23 06:28:58;;;;;;;9.70;5.03;;;17.40;99.90;;;;;;5053379;28;20050;-69
2022/05/23 06:31:24;;;;;;;9.23;4.97;;;17.50;99.90;;;;;;5053054;28;20465;-69
2022/05/23 06:33:50;;;;;;;8.23;5.43;;;17.60;99.90;;;;;;5053188;28;20057;-69
2022/05/23 06:36:16;;;;;;;9.70;4.95;;;17.50;99.90;;;;;;5053305;28;20048;-69
2022/05/23 06:38:42;;;;;;;9.23;5.40;;;17.50;99.90;;;;;;5053076;28;20233;-69
2022/05/23 06:41:09;;;;;;;8.95;5.40;;;17.60;99.90;;;;;;5053066;28;20095;-71
2022/05/23 06:43:36;;;;;;;10.70;5.88;;;17.60;99.90;;;;;;5053036;28;20064;-69
2022/05/23 06:46:03;;;;;;;10.13;5.03;;;17.60;99.90;;;;;;5052991;28;20049;-69
2022/05/23 06:48:29;;;;;;;8.20;5.28;;;17.70;99.90;;;;;;5057355;28;20057;-69
2022/05/23 06:50:55;;;;;;;10.23;5.47;;;17.60;99.90;;;;;;5057102;28;20041;-69
2022/05/23 06:53:23;;;;;;;12.35;5.78;;;17.70;99.90;;;;;;5056676;28;20053;-69
2022/05/23 06:55:50;;;;;;;11.48;5.70;;;17.80;99.90;;;;;;5057126;28;20037;-69
2022/05/23 06:58:17;;;;;;;8.80;5.70;;;18.00;99.90;;;;;;5057243;28;20045;-69
2022/05/23 07:00:43;;;;;;;7.85;5.35;;;18.00;99.90;;;;;;5056947;28;20084;-69
2022/05/23 07:03:09;;;;;;;7.63;5.30;;;18.10;99.90;;;;;;5057153;28;20060;-69
2022/05/23 07:13:52;;;;;;;13.45;6.32;;;18.40;99.90;;;;;;5056722;28;20102;-69
2022/05/23 07:16:18;;;;;;;12.60;6.35;;;18.60;99.90;;;;;;5056696;28;20044;-70
2022/05/23 07:18:45;;;;;;;9.30;5.20;;;18.40;99.90;;;;;;5055822;28;20146;-71
2022/05/23 07:21:11;;;;;;;14.25;5.97;;;18.50;99.90;;;;;;5057468;28;20044;-69
2022/05/23 07:23:37;;;;;;;7.43;4.97;;;18.70;99.90;;;;;;5055967;28;20100;-68
2022/05/23 07:26:05;;;;;;;11.55;5.72;;;18.80;99.90;;;;;;5061938;28;20059;-70
2022/05/23 07:28:30;;;;;;;9.82;5.45;;;19.00;99.90;;;;;;5063346;28;20045;-69
2022/05/23 07:30:56;;;;;;;8.05;5.45;;;19.10;99.90;;;;;;5063205;28;20059;-71
2022/05/23 07:33:22;;;;;;;11.98;5.75;;;19.30;99.90;;;;;;5056038;28;20534;-71
2022/05/23 07:36:08;;;;;;;8.55;4.97;;;19.20;99.90;;;;;;5037800;28;20052;-69
2022/05/23 07:38:34;;;;;;;8.90;4.90;;;19.40;99.90;;;;;;5056724;28;20445;-69
2022/05/23 07:41:00;;;;;;;10.45;5.72;;;19.50;99.90;;;;;;5056237;28;20048;-69
2022/05/23 07:43:26;;;;;;;7.95;5.15;;;19.60;99.90;;;;;;5056151;28;20104;-70
2022/05/23 07:45:53;;;;;;;9.20;5.47;;;19.60;99.90;;;;;;5056496;28;20546;-69
2022/05/23 07:48:20;;;;;;;11.48;5.70;;;19.50;99.90;;;;;;5056120;28;20132;-69
2022/05/23 07:50:46;;;;;;;10.07;5.63;;;19.60;99.90;;;;;;5058065;28;20049;-70
2022/05/23 08:01:29;;;;;;;8.93;5.30;;;19.90;99.90;;;;;;5040870;28;20052;-70
2022/05/23 08:03:56;;;;;;;13.82;6.35;;;20.10;99.90;;;;;;5056015;28;20138;-70
2022/05/23 08:06:22;;;;;;;8.35;5.57;;;20.10;99.90;;;;;;5038000;28;20552;-70
2022/05/23 08:08:47;;;;;;;10.18;5.65;;;20.10;99.90;;;;;;5055961;28;20041;-70
2022/05/23 08:11:14;;;;;;;10.13;6.10;;;19.80;99.90;;;;;;5055574;28;20051;-70
2022/05/23 08:13:45;;;;;;;9.95;5.68;;;19.80;99.90;;;;;;5055678;28;20053;-70
2022/05/23 08:16:10;;;;;;;10.85;5.57;;;20.00;99.90;;;;;;5055741;28;20474;-70
2022/05/23 08:18:36;;;;;;;11.07;6.00;;;20.10;99.90;;;;;;5055813;28;20052;-69
2022/05/23 08:21:02;;;;;;;10.00;5.90;;;20.10;99.90;;;;;;5055309;28;20474;-70
2022/05/23 08:23:29;;;;;;;9.18;5.60;;;20.10;99.90;;;;;;5054996;28;20401;-70
2022/05/23 08:25:56;;;;;;;12.02;5.57;;;20.30;99.90;;;;;;5055584;28;20132;-70
2022/05/23 08:28:21;;;;;;;11.25;4.95;;;20.40;99.90;;;;;;5037450;28;20049;-71
2022/05/23 08:30:47;;;;;;;8.93;5.47;;;20.60;99.90;;;;;;5055622;28;20076;-70
2022/05/23 08:33:13;;;;;;;11.70;6.30;;;20.70;99.90;;;;;;5055327;28;20041;-69
2022/05/23 08:35:39;;;;;;;12.52;6.07;;;20.90;99.90;;;;;;5055011;28;20056;-71
2022/05/23 08:38:05;;;;;;;12.63;5.30;;;21.00;99.90;;;;;;5037906;28;20413;-70
2022/05/23 08:40:37;;;;;;;9.05;5.40;;;21.10;99.90;;;;;;5055362;28;20186;-71
2022/05/23 08:43:05;;;;;;;10.48;4.88;;;21.10;99.90;;;;;;5055042;28;20432;-70
2022/05/23 08:45:42;;;;;;;10.77;5.22;;;21.10;99.90;;;;;;5055342;28;20052;-72
2022/05/23 08:48:28;;;;;;;10.38;5.60;;;21.40;99.90;;;;;;5054750;28;20408;-71
2022/05/23 08:51:17;;;;;;;16.92;6.07;;;21.40;99.90;;;;;;5055072;28;20045;-69
2022/05/23 08:53:51;;;;;;;11.07;5.78;;;21.40;99.90;;;;;;5054695;28;20442;-69
2022/05/23 08:56:27;;;;;;;9.50;5.82;;;21.60;99.90;;;;;;5054915;28;20063;-69
2022/05/23 08:58:55;;;;;;;10.32;5.85;;;21.50;99.90;;;;;;5055057;28;20122;-73
2022/05/23 09:01:49;;;;;;;10.00;5.55;;;21.50;99.90;;;;;;5036988;28;20053;-71
2022/05/23 09:04:37;;;;;;;11.60;5.60;;;21.70;99.90;;;;;;5054832;28;20148;-70
2022/05/23 09:07:06;;;;;;;9.50;5.55;;;21.70;99.90;;;;;;5054556;28;20049;-71
2022/05/23 09:09:34;;;;;;;10.00;5.28;;;22.00;99.90;;;;;;5054266;28;20045;-73
2022/05/23 09:12:09;;;;;;;10.55;5.57;;;22.10;99.90;;;;;;5037094;28;20110;-71
2022/05/23 09:14:35;;;;;;;10.00;5.00;;;22.30;99.90;;;;;;5054805;28;20056;-71
2022/05/23 09:17:01;;;;;;;6.85;4.20;;;22.60;99.90;;;;;;5054433;28;20041;-71
2022/05/23 09:19:42;;;;;;;8.05;3.63;;;22.80;99.90;;;;;;5054471;28;20048;-71
2022/05/23 09:22:23;;;;;;;7.85;4.10;;;23.20;99.90;;;;;;5054442;28;20383;-70
2022/05/23 09:24:52;;;;;;;10.18;5.13;;;23.40;99.90;;;;;;5054115;28;20470;-71
2022/05/23 09:27:18;;;;;;;9.82;4.47;;;23.50;99.90;;;;;;5036308;28;20041;-71
2022/05/23 09:29:50;;;;;;;8.30;3.65;;;23.60;99.90;;;;;;5054186;28;20063;-71
2022/05/23 09:32:17;;;;;;;8.73;4.72;;;23.60;99.90;;;;;;5036973;28;20123;-71
2022/05/23 09:35:09;;;;;;;9.68;3.90;;;23.70;99.90;;;;;;5054126;28;20056;-71
2022/05/23 09:37:37;;;;;;;9.48;3.30;;;23.80;99.90;;;;;;5054202;28;20052;-71
2022/05/23 09:40:05;;;;;;;5.45;2.97;;;23.80;99.90;;;;;;5053856;28;20053;-71
2022/05/23 09:48:22;;;;;;;7.00;3.40;;;24.00;99.90;;;;;;5053740;28;20049;-71
2022/05/23 09:51:10;;;;;;;10.38;3.55;;;24.10;99.90;;;;;;5053985;28;20057;-71
2022/05/23 09:53:52;;;;;;;8.55;3.67;;;24.20;99.90;;;;;;5053431;28;20041;-71
2022/05/23 09:56:37;;;;;;;7.60;3.20;;;24.30;99.90;;;;;;5053941;28;20052;-71
2022/05/23 09:59:17;;;;;;;7.07;2.50;;;24.30;99.90;;;;;;5053838;28;20500;-71
2022/05/23 10:01:42;;;;;;;9.27;3.28;;;24.40;99.90;;;;;;5053495;28;20084;-71
2022/05/23 10:04:26;;;;;;;4.82;2.28;;;24.60;99.90;;;;;;5053718;28;20049;-74
2022/05/23 10:06:52;;;;;;;8.02;3.35;;;24.60;99.90;;;;;;5053738;28;20477;-71
2022/05/23 10:09:30;;;;;;;6.90;2.72;;;24.50;99.80;;;;;;5053505;28;20055;-71
2022/05/23 10:12:00;;;;;;;6.97;2.67;;;24.60;99.90;;;;;;5053674;28;20049;-71
2022/05/23 10:14:44;;;;;;;10.43;3.20;;;24.60;99.90;;;;;;5053397;28;20501;-71
2022/05/23 10:17:09;;;;;;;6.82;3.40;;;24.50;99.90;;;;;;5053593;28;20044;-71
2022/05/23 10:19:38;;;;;;;5.22;3.10;;;24.40;99.90;;;;;;5053231;28;20074;-71
2022/05/23 10:22:22;;;;;;;4.75;2.42;;;24.50;99.90;;;;;;5052590;28;20102;-71
2022/05/23 10:25:01;;;;;;;6.90;2.60;;;24.60;99.90;;;;;;5053255;28;20056;-71
2022/05/23 10:27:55;;;;;;;5.55;2.65;;;24.50;99.90;;;;;;5053153;28;20085;-71
2022/05/23 10:30:25;;;;;;;8.40;2.70;;;24.40;99.90;;;;;;5049022;28;20057;-71
2022/05/23 10:33:02;;;;;;;8.02;2.10;;;24.40;99.80;;;;;;5054138;28;20107;-71
2022/05/23 10:35:43;;;;;;;8.38;2.63;;;24.60;99.90;;;;;;5053231;28;20048;-71
2022/05/23 10:44:15;;;;;;;5.50;2.72;;;24.70;99.90;;;;;;5053217;28;20057;-71
2022/05/23 10:46:44;;;;;;;5.25;2.58;;;24.90;99.90;;;;;;5053165;28;20037;-70
2022/05/23 10:49:12;;;;;;;5.72;2.70;;;24.90;99.60;;;;;;5053002;28;20044;-71
2022/05/23 10:52:06;;;;;;;6.05;2.60;;;24.80;99.90;;;;;;5053237;28;20041;-71
2022/05/23 10:54:32;;;;;;;8.15;2.30;;;24.80;99.90;;;;;;5052690;28;20059;-71
2022/05/23 10:57:07;;;;;;;5.97;2.83;;;25.30;99.90;;;;;;5053284;28;20045;-71
2022/05/23 11:00:04;;;;;;;6.10;2.63;;;25.80;99.90;;;;;;5052804;28;20103;-71
2022/05/23 11:03:01;;;;;;;6.35;2.70;;;25.80;99.90;;;;;;5053041;28;20041;-71
2022/05/23 11:05:41;;;;;;;6.20;2.60;;;25.70;99.60;;;;;;5035096;28;20084;-70
2022/05/23 11:08:23;;;;;;;8.18;2.95;;;25.90;99.60;;;;;;5052897;28;20140;-70
2022/05/23 11:10:54;;;;;;;5.65;2.35;;;25.80;99.70;;;;;;5052724;28;20401;-71
2022/05/23 11:13:49;;;;;;;5.07;2.50;;;25.90;99.50;;;;;;5052980;28;20049;-71
2022/05/23 11:16:20;;;;;;;6.68;2.35;;;25.80;99.20;;;;;;5053020;28;20124;-71
2022/05/23 11:18:58;;;;;;;4.65;2.70;;;26.10;99.00;;;;;;5053292;28;20045;-70
2022/05/23 11:21:36;;;;;;;8.40;2.33;;;25.90;98.80;;;;;;5053309;28;20132;-70
2022/05/23 11:24:10;;;;;;;10.35;2.40;;;25.80;99.00;;;;;;5034887;28;20478;-70
2022/05/23 11:26:42;;;;;;;4.85;2.20;;;26.10;98.70;;;;;;5052739;28;20048;-71
2022/05/23 11:35:03;;;;;;;6.40;2.55;;;26.90;98.50;;;;;;5056636;28;20409;-71
2022/05/23 11:37:45;;;;;;;4.88;2.10;;;27.10;98.70;;;;;;5056417;28;20049;-71
2022/05/23 11:40:36;;;;;;;8.05;2.53;;;27.70;99.00;;;;;;5056508;28;20159;-71
2022/05/23 11:43:17;;;;;;;4.90;1.90;;;27.80;98.50;;;;;;5022054;28;20049;-70
2022/05/23 11:45:59;;;;;;;5.30;2.00;;;27.70;98.60;;;;;;5056400;28;20098;-70
2022/05/23 11:48:36;;;;;;;5.18;2.30;;;28.00;98.40;;;;;;5056462;28;20124;-71
2022/05/23 11:51:17;;;;;;;3.90;2.00;;;28.20;98.10;;;;;;5056043;28;20049;-71
2022/05/23 11:53:55;;;;;;;5.28;2.00;;;28.30;98.80;;;;;;5055458;28;20052;-71
2022/05/23 11:56:43;;;;;;;3.25;1.60;;;28.40;98.10;;;;;;5038913;28;20052;-71
2022/05/23 11:59:23;;;;;;;5.05;1.50;;;28.30;98.20;;;;;;5055925;28;20131;-70
2022/05/23 12:02:08;;;;;;;4.70;1.40;;;28.40;98.00;;;;;;5056011;28;20050;-70
2022/05/23 12:04:49;;;;;;;4.32;1.70;;;28.40;97.80;;;;;;5038412;28;20455;-70
2022/05/23 12:07:44;;;;;;;6.30;1.75;;;28.50;98.20;;;;;;5055970;28;20048;-69
2022/05/23 12:10:22;;;;;;;6.25;1.90;;;28.20;97.10;;;;;;5056349;28;20131;-69
2022/05/23 12:12:52;;;;;;;3.75;1.50;;;28.10;97.40;;;;;;5055911;28;20080;-69
2022/05/23 12:15:42;;;;;;;7.38;1.83;;;28.20;97.80;;;;;;5055770;28;20123;-70
2022/05/23 12:18:21;;;;;;;8.50;1.83;;;28.60;97.50;;;;;;5055619;28;20106;-69
2022/05/23 12:21:03;;;;;;;3.28;1.60;;;28.70;97.30;;;;;;5055733;28;20045;-70
2022/05/23 12:23:36;;;;;;;4.50;1.60;;;28.70;97.20;;;;;;5055207;28;20045;-70
2022/05/23 12:26:11;;;;;;;5.57;1.40;;;28.70;97.60;;;;;;5055437;28;20501;-70
2022/05/23 12:28:59;;;;;;;5.30;1.80;;;29.20;97.60;;;;;;5055418;28;20056;-70
2022/05/23 12:31:30;;;;;;;4.50;1.60;;;29.00;97.40;;;;;;5055672;28;20559;-70
2022/05/23 12:34:08;;;;;;;3.33;1.55;;;29.10;97.50;;;;;;5055266;28;20505;-70
2022/05/23 12:36:47;;;;;;;4.47;1.52;;;29.40;97.60;;;;;;5055602;28;20053;-70
2022/05/23 12:39:28;;;;;;;3.85;1.90;;;29.00;97.90;;;;;;5055234;28;20085;-69
2022/05/23 12:42:13;;;;;;;7.00;1.83;;;29.00;97.30;;;;;;5055157;28;20048;-70
2022/05/23 12:45:00;;;;;;;4.25;1.75;;;28.50;97.00;;;;;;5054636;28;20114;-69
2022/05/23 12:47:57;;;;;;;3.05;1.70;;;27.90;97.00;;;;;;5055026;28;20047;-70
2022/05/23 12:50:51;;;;;;;5.40;1.63;;;27.30;97.20;;;;;;5055071;28;20055;-70
2022/05/23 12:53:45;;;;;;;4.55;1.80;;;27.30;97.40;;;;;;5055053;28;20285;-70
2022/05/23 12:56:34;;;;;;;3.65;2.10;;;27.30;97.50;;;;;;5020738;28;20091;-70
2022/05/23 12:59:14;;;;;;;3.65;1.80;;;27.40;97.30;;;;;;5037136;28;20104;-70
2022/05/23 13:01:43;;;;;;;6.03;1.80;;;27.00;97.00;;;;;;5054995;28;20112;-69
2022/05/23 13:04:16;;;;;;;7.50;2.03;;;26.90;97.90;;;;;;5054713;28;20045;-70
2022/05/23 13:07:25;;;;;;;4.05;1.80;;;26.70;97.80;;;;;;5054790;28;20064;-70
2022/05/23 13:09:56;;;;;;;5.32;1.70;;;26.90;98.40;;;;;;5054136;28;20057;-70
2022/05/23 13:12:25;;;;;;;4.18;2.20;;;26.80;98.00;;;;;;5054667;28;20059;-70
2022/05/23 13:14:59;;;;;;;4.45;2.03;;;26.70;97.60;;;;;;5054622;28;20049;-70
2022/05/23 13:17:43;;;;;;;5.82;2.15;;;26.80;97.70;;;;;;5054457;28;20037;-70
2022/05/23 13:23:11;;;;;;;3.50;1.80;;;26.80;97.80;;;;;;5036480;28;20063;-70
2022/05/23 13:25:37;;;;;;;5.05;1.85;;;26.70;98.10;;;;;;5054166;28;20490;-70
2022/05/23 13:28:08;;;;;;;6.03;2.30;;;26.70;98.20;;;;;;5054416;28;20084;-70
2022/05/23 13:30:41;;;;;;;3.72;1.80;;;26.60;98.10;;;;;;5033420;28;20409;-70
2022/05/23 13:33:09;;;;;;;5.57;2.10;;;26.60;98.90;;;;;;5034425;28;20045;-70
2022/05/23 13:35:36;;;;;;;3.83;1.85;;;26.40;98.10;;;;;;5033403;28;20371;-70
2022/05/23 13:38:36;;;;;;;4.10;2.00;;;26.00;97.80;;;;;;5033995;28;20670;-70
2022/05/23 13:41:04;;;;;;;5.97;2.15;;;25.90;98.10;;;;;;5023550;28;20151;-69
2022/05/23 13:43:43;;;;;;;4.10;2.08;;;25.90;97.90;;;;;;5034046;28;20056;-70
2022/05/23 13:46:21;;;;;;;4.80;2.03;;;25.90;97.80;;;;;;5034268;28;20041;-70
2022/05/23 13:49:02;;;;;;;5.60;1.80;;;25.90;98.50;;;;;;5034018;28;20049;-70
2022/05/23 13:51:42;;;;;;;4.10;2.15;;;26.00;98.30;;;;;;5034049;28;20095;-70
2022/05/23 13:54:47;;;;;;;6.65;1.92;;;26.10;98.50;;;;;;5033728;28;20140;-70
2022/05/23 13:57:19;;;;;;;6.80;2.05;;;25.90;98.90;;;;;;5003417;28;20088;-70
2022/05/23 14:00:00;;;;;;;8.45;2.20;;;25.90;98.50;;;;;;5034217;28;20096;-70
2022/05/23 14:02:31;;;;;;;5.20;2.10;;;25.90;98.40;;;;;;5033754;28;20038;-70
2022/05/23 14:04:58;;;;;;;5.25;2.08;;;25.80;98.60;;;;;;5033550;28;20482;-70
2022/05/23 14:07:27;;;;;;;3.75;2.03;;;25.90;98.40;;;;;;5033684;28;20041;-70
2022/05/23 14:09:57;;;;;;;3.00;2.10;;;26.00;98.70;;;;;;5033825;28;20093;-70